Time;durP1;ratioP1;P1;durP2;ratioP2;P2;SDS_P1;SDS_P2;PMS_P1;PMS_P2;Temp;Humidity;BMP_temperature;BMP_pressure;BME280_temperature;BME280_humidity;BME280_pressure;Samples;Min_cycle;Max_cycle;Signal;HPM_P1;HPM_P2
2023/05/22 00:00:37;;;;;;;37.83;33.97;;;16.90;99.90;;;;;;5114241;27;20450;-90
2023/05/22 00:03:07;;;;;;;38.60;34.72;;;16.90;99.90;;;;;;5113118;27;20448;-89
2023/05/22 00:05:37;;;;;;;38.17;34.53;;;16.90;99.90;;;;;;5113809;27;20409;-90
2023/05/22 00:08:05;;;;;;;37.95;34.25;;;17.10;99.90;;;;;;5113861;27;20411;-91
2023/05/22 00:10:30;;;;;;;38.13;34.35;;;17.00;99.90;;;;;;5113397;27;20446;-90
2023/05/22 00:12:56;;;;;;;36.03;32.23;;;17.30;99.90;;;;;;5114055;27;20782;-90
2023/05/22 00:15:21;;;;;;;37.83;34.20;;;17.00;99.90;;;;;;5112780;27;20508;-90
2023/05/22 00:17:47;;;;;;;36.92;33.28;;;16.80;99.90;;;;;;5113860;27;20389;-90
2023/05/22 00:20:13;;;;;;;38.23;34.47;;;17.00;99.90;;;;;;5112810;27;20401;-90
2023/05/22 00:22:38;;;;;;;39.90;35.93;;;17.10;99.90;;;;;;5113598;27;20772;-91
2023/05/22 00:25:05;;;;;;;39.80;36.00;;;17.30;99.90;;;;;;5109672;27;20534;-91
2023/05/22 00:27:31;;;;;;;38.17;34.37;;;17.00;99.90;;;;;;5110072;27;20467;-90
2023/05/22 00:29:57;;;;;;;39.20;35.30;;;17.00;99.90;;;;;;5110082;27;20399;-90
2023/05/22 00:32:24;;;;;;;38.20;34.57;;;17.00;99.90;;;;;;5109214;27;20402;-90
2023/05/22 00:34:50;;;;;;;39.67;35.95;;;17.20;99.90;;;;;;5110259;27;20402;-90
2023/05/22 00:37:18;;;;;;;39.83;36.10;;;17.00;99.90;;;;;;5109304;27;20473;-90
2023/05/22 00:39:44;;;;;;;39.38;35.45;;;17.00;99.90;;;;;;5110421;27;20759;-89
2023/05/22 00:42:10;;;;;;;38.05;34.25;;;17.00;99.90;;;;;;5108954;27;20967;-89
2023/05/22 00:44:36;;;;;;;39.92;36.13;;;17.20;99.90;;;;;;5109384;27;20443;-90
2023/05/22 00:47:01;;;;;;;40.60;36.67;;;17.00;99.90;;;;;;5109757;27;20411;-92
2023/05/22 00:49:27;;;;;;;38.95;35.03;;;16.90;99.90;;;;;;5109300;27;20537;-91
2023/05/22 00:51:53;;;;;;;38.23;34.23;;;17.00;99.90;;;;;;5110143;28;20399;-91
2023/05/22 00:54:19;;;;;;;41.25;37.05;;;17.00;99.90;;;;;;5108882;27;20485;-91
2023/05/22 00:56:45;;;;;;;41.58;37.17;;;17.00;99.90;;;;;;5110395;28;20482;-90
2023/05/22 00:59:11;;;;;;;37.73;34.03;;;17.00;99.90;;;;;;5108475;28;20411;-91
2023/05/22 01:01:40;;;;;;;38.40;34.83;;;17.20;99.90;;;;;;5109630;28;20781;-91
2023/05/22 01:04:09;;;;;;;40.63;36.63;;;17.00;99.90;;;;;;5109418;28;20398;-90
2023/05/22 01:06:35;;;;;;;39.70;35.80;;;17.00;99.90;;;;;;5109300;28;20398;-90
2023/05/22 01:09:02;;;;;;;40.80;36.83;;;17.00;99.90;;;;;;5109477;28;20399;-90
2023/05/22 01:11:46;;;;;;;42.13;37.80;;;17.00;99.90;;;;;;5108429;28;20492;-89
2023/05/22 01:14:39;;;;;;;95.68;67.00;;;17.00;99.90;;;;;;5108996;28;20401;-88
2023/05/22 01:17:27;;;;;;;136.53;78.93;;;16.70;99.90;;;;;;5107614;28;20456;-87
2023/05/22 01:20:13;;;;;;;152.70;86.18;;;16.50;99.90;;;;;;5128517;27;20912;-90
2023/05/22 01:23:03;;;;;;;148.80;90.38;;;16.30;99.90;;;;;;5112946;27;20433;-89
2023/05/22 01:25:52;;;;;;;233.82;114.90;;;16.10;99.90;;;;;;5111683;27;20414;-88
2023/05/22 01:28:49;;;;;;;195.53;110.83;;;16.10;99.90;;;;;;5112260;27;20451;-89
2023/05/22 01:31:18;;;;;;;137.13;90.30;;;16.10;99.90;;;;;;5112687;27;20426;-88
2023/05/22 01:34:03;;;;;;;166.43;99.97;;;16.10;99.90;;;;;;5111461;27;20407;-88
2023/05/22 01:36:33;;;;;;;199.20;106.57;;;16.10;99.90;;;;;;5112409;27;20554;-91
2023/05/22 01:39:03;;;;;;;212.27;113.32;;;16.00;99.90;;;;;;5111969;27;20399;-88
2023/05/22 01:41:29;;;;;;;168.70;103.13;;;15.90;99.90;;;;;;5128976;27;20475;-88
2023/05/22 01:43:55;;;;;;;192.93;113.53;;;15.90;99.90;;;;;;5112218;27;20430;-89
2023/05/22 01:46:23;;;;;;;162.40;103.75;;;16.00;99.90;;;;;;5111111;27;20481;-88
2023/05/22 01:48:49;;;;;;;343.13;147.65;;;16.10;99.90;;;;;;5112367;27;21231;-87
2023/05/22 01:51:39;;;;;;;222.88;123.03;;;16.20;99.90;;;;;;5111551;27;20383;-88
2023/05/22 01:54:17;;;;;;;330.63;143.73;;;16.10;99.90;;;;;;5110736;27;20455;-89
2023/05/22 01:56:49;;;;;;;277.45;131.73;;;16.10;99.90;;;;;;5112350;27;20761;-89
2023/05/22 01:59:21;;;;;;;348.02;152.10;;;16.10;99.90;;;;;;5111003;27;20424;-89
2023/05/22 02:01:50;;;;;;;224.73;119.07;;;16.10;99.90;;;;;;5112087;27;20739;-88
2023/05/22 02:04:20;;;;;;;477.97;169.20;;;16.00;99.90;;;;;;5111360;27;20795;-88
2023/05/22 02:06:46;;;;;;;363.85;147.68;;;16.20;99.90;;;;;;5111535;27;20413;-88
2023/05/22 02:09:15;;;;;;;284.67;129.27;;;16.00;99.90;;;;;;5111803;27;20768;-89
2023/05/22 02:11:41;;;;;;;342.50;145.50;;;16.00;99.90;;;;;;5111102;27;20567;-89
2023/05/22 02:14:11;;;;;;;343.30;137.27;;;16.40;99.90;;;;;;5111620;27;20901;-89
2023/05/22 02:16:37;;;;;;;206.80;116.57;;;16.10;99.90;;;;;;5110492;27;20382;-89
2023/05/22 02:19:04;;;;;;;145.05;98.88;;;16.10;99.90;;;;;;5111979;27;21141;-89
2023/05/22 02:21:31;;;;;;;234.90;127.60;;;16.10;99.90;;;;;;5127765;27;20389;-88
2023/05/22 02:23:57;;;;;;;231.70;122.28;;;16.00;99.90;;;;;;5110804;27;20523;-88
2023/05/22 02:26:23;;;;;;;140.43;94.17;;;16.10;99.90;;;;;;5111364;27;20408;-89
2023/05/22 02:28:48;;;;;;;137.30;95.70;;;16.00;99.90;;;;;;5111281;27;20493;-88
2023/05/22 02:31:15;;;;;;;148.00;95.10;;;16.10;99.90;;;;;;5111601;27;20940;-88
2023/05/22 02:33:40;;;;;;;210.55;109.63;;;16.10;99.90;;;;;;5110488;27;20403;-89
2023/05/22 02:36:11;;;;;;;296.45;129.63;;;16.10;99.90;;;;;;5111966;27;20407;-88
2023/05/22 02:38:37;;;;;;;231.40;121.63;;;16.10;99.90;;;;;;5127756;27;20399;-88
2023/05/22 02:41:03;;;;;;;251.95;123.97;;;16.10;99.90;;;;;;5111414;27;20403;-89
2023/05/22 02:43:28;;;;;;;133.45;90.55;;;16.10;99.90;;;;;;5128093;27;21133;-89
2023/05/22 02:45:54;;;;;;;168.77;105.93;;;16.00;99.90;;;;;;5110876;27;20923;-89
2023/05/22 02:48:20;;;;;;;232.65;124.25;;;16.00;99.90;;;;;;5111387;27;20403;-88
2023/05/22 02:50:47;;;;;;;281.50;133.27;;;16.00;99.90;;;;;;5127692;27;20391;-90
2023/05/22 02:53:14;;;;;;;147.05;98.43;;;15.90;99.90;;;;;;5128132;27;20399;-89
2023/05/22 02:55:40;;;;;;;171.70;105.25;;;16.00;99.90;;;;;;5110434;27;20407;-89
2023/05/22 02:58:10;;;;;;;263.90;129.93;;;16.00;99.90;;;;;;5110920;27;20491;-89
2023/05/22 03:00:36;;;;;;;185.65;107.10;;;16.00;99.90;;;;;;5110245;27;20386;-89
2023/05/22 03:03:03;;;;;;;179.80;107.03;;;15.90;99.90;;;;;;5110825;27;20560;-89
2023/05/22 03:05:28;;;;;;;217.47;117.13;;;16.00;99.90;;;;;;5110351;27;20440;-89
2023/05/22 03:07:54;;;;;;;185.90;108.80;;;15.90;99.90;;;;;;5127147;27;20456;-88
2023/05/22 03:10:21;;;;;;;194.15;113.45;;;15.90;99.90;;;;;;5127765;27;20401;-89
2023/05/22 03:12:47;;;;;;;217.38;121.45;;;15.90;99.90;;;;;;5109742;27;20738;-88
2023/05/22 03:15:12;;;;;;;150.48;98.70;;;16.20;99.90;;;;;;5110923;27;20403;-89
2023/05/22 03:17:38;;;;;;;214.20;117.73;;;15.80;99.90;;;;;;5126754;27;20398;-90
2023/05/22 03:20:05;;;;;;;265.13;127.13;;;15.80;99.90;;;;;;5110475;27;20477;-89
2023/05/22 03:22:31;;;;;;;247.50;121.10;;;15.80;99.90;;;;;;5109901;27;20468;-89
2023/05/22 03:24:57;;;;;;;267.48;126.57;;;15.80;99.90;;;;;;5109766;27;20917;-89
2023/05/22 03:27:22;;;;;;;218.73;115.13;;;15.70;99.90;;;;;;5110289;27;20409;-89
2023/05/22 03:29:48;;;;;;;229.80;117.72;;;15.70;99.90;;;;;;5109769;27;20393;-89
2023/05/22 03:32:13;;;;;;;161.43;102.17;;;15.70;99.90;;;;;;5127484;27;20772;-88
2023/05/22 03:34:39;;;;;;;178.15;104.18;;;15.80;99.90;;;;;;5126808;27;21266;-89
2023/05/22 03:37:05;;;;;;;210.65;114.47;;;15.70;99.90;;;;;;5110333;27;20440;-89
2023/05/22 03:39:31;;;;;;;280.37;111.90;;;15.60;99.90;;;;;;5109640;27;20398;-88
2023/05/22 03:41:56;;;;;;;285.60;125.45;;;15.90;99.90;;;;;;5109316;27;20386;-89
2023/05/22 03:44:22;;;;;;;191.37;105.80;;;15.70;99.90;;;;;;5109796;27;20406;-89
2023/05/22 03:46:47;;;;;;;308.08;117.63;;;15.60;99.90;;;;;;5109602;27;20405;-89
2023/05/22 03:49:13;;;;;;;174.37;100.27;;;15.60;99.90;;;;;;5127128;27;20927;-88
2023/05/22 03:51:39;;;;;;;214.65;113.55;;;15.50;99.90;;;;;;5109432;27;20485;-89
2023/05/22 03:54:04;;;;;;;231.73;115.10;;;15.50;99.90;;;;;;5110203;27;20501;-88
2023/05/22 03:56:30;;;;;;;131.57;86.03;;;15.80;99.90;;;;;;5126280;27;20401;-89
2023/05/22 03:58:55;;;;;;;144.90;92.40;;;15.50;99.90;;;;;;5126870;27;20414;-89
2023/05/22 04:01:22;;;;;;;114.37;81.80;;;15.50;99.90;;;;;;5109543;27;20403;-89
2023/05/22 04:03:47;;;;;;;125.38;86.63;;;15.50;99.90;;;;;;5109094;27;20951;-88
2023/05/22 04:06:13;;;;;;;197.03;106.20;;;15.70;99.90;;;;;;5109357;27;20399;-88
2023/05/22 04:08:39;;;;;;;160.77;98.32;;;15.90;99.90;;;;;;5126028;27;20493;-89
2023/05/22 04:11:05;;;;;;;387.20;133.93;;;15.60;99.90;;;;;;5109924;27;20398;-87
2023/05/22 04:13:31;;;;;;;279.87;119.83;;;15.60;99.90;;;;;;5108692;27;20955;-89
2023/05/22 04:15:57;;;;;;;220.13;111.55;;;15.60;99.90;;;;;;5109570;27;20483;-90
2023/05/22 04:18:23;;;;;;;197.70;104.40;;;15.60;99.90;;;;;;5109139;27;20482;-88
2023/05/22 04:20:50;;;;;;;173.57;100.85;;;15.60;99.90;;;;;;5109602;27;20463;-89
2023/05/22 04:23:16;;;;;;;130.77;88.35;;;15.60;99.90;;;;;;5109207;27;20442;-89
2023/05/22 04:25:42;;;;;;;142.82;93.93;;;15.60;99.90;;;;;;5125873;27;20486;-89
2023/05/22 04:28:08;;;;;;;226.88;115.32;;;15.90;99.90;;;;;;5109137;27;20818;-89
2023/05/22 04:30:35;;;;;;;186.63;106.73;;;15.70;99.90;;;;;;5108882;27;20383;-89
2023/05/22 04:33:02;;;;;;;158.32;96.93;;;15.80;99.90;;;;;;5109533;27;20403;-89
2023/05/22 04:35:28;;;;;;;145.60;91.50;;;15.70;99.90;;;;;;5108371;27;20452;-89
2023/05/22 04:37:55;;;;;;;133.93;89.68;;;15.80;99.90;;;;;;5109330;27;20406;-89
2023/05/22 04:40:21;;;;;;;140.55;92.05;;;15.80;99.90;;;;;;5108785;28;20468;-88
2023/05/22 04:42:46;;;;;;;160.70;99.63;;;15.80;99.90;;;;;;5108958;27;20422;-89
2023/05/22 04:45:12;;;;;;;136.93;92.47;;;15.90;99.90;;;;;;5108668;27;20395;-88
2023/05/22 04:47:40;;;;;;;156.15;97.45;;;16.20;99.90;;;;;;5108305;27;20493;-88
2023/05/22 04:50:06;;;;;;;167.30;97.93;;;15.90;99.90;;;;;;5109283;27;20482;-89
2023/05/22 04:52:32;;;;;;;146.23;94.70;;;15.90;99.90;;;;;;5107823;28;20452;-90
2023/05/22 04:54:57;;;;;;;136.55;92.43;;;15.80;99.90;;;;;;5108866;27;20472;-89
2023/05/22 04:57:26;;;;;;;93.33;73.40;;;15.90;99.90;;;;;;5108241;28;20403;-89
2023/05/22 04:59:52;;;;;;;113.10;81.80;;;15.90;99.90;;;;;;5108766;28;20809;-89
2023/05/22 05:02:18;;;;;;;87.63;66.70;;;16.00;99.90;;;;;;5108280;28;20504;-90
2023/05/22 05:04:43;;;;;;;93.93;69.90;;;16.00;99.90;;;;;;5108256;28;20395;-90
2023/05/22 05:07:09;;;;;;;74.43;57.83;;;16.00;99.90;;;;;;5109063;28;20535;-88
2023/05/22 05:09:35;;;;;;;71.10;49.97;;;16.00;99.90;;;;;;5125862;28;20558;-90
2023/05/22 05:12:01;;;;;;;43.97;32.00;;;16.20;99.90;;;;;;5109203;28;20777;-90
2023/05/22 05:14:26;;;;;;;52.03;34.88;;;16.10;99.90;;;;;;5107952;28;20393;-89
2023/05/22 05:16:52;;;;;;;52.10;31.73;;;15.90;99.90;;;;;;5109170;28;20956;-88
2023/05/22 05:19:20;;;;;;;46.22;29.58;;;15.80;99.90;;;;;;5108483;28;20478;-89
2023/05/22 05:21:48;;;;;;;41.90;26.40;;;15.80;99.90;;;;;;5108219;28;20399;-90
2023/05/22 05:24:16;;;;;;;33.55;21.25;;;15.80;99.90;;;;;;5108749;28;20394;-89
2023/05/22 05:26:42;;;;;;;41.65;25.00;;;15.90;99.90;;;;;;5108594;28;20402;-90
2023/05/22 05:29:07;;;;;;;41.00;25.43;;;15.70;99.90;;;;;;5109397;28;20463;-89
2023/05/22 05:31:33;;;;;;;42.13;27.33;;;15.90;99.90;;;;;;5108620;28;20896;-88
2023/05/22 05:33:59;;;;;;;33.55;21.30;;;15.90;99.90;;;;;;5109387;28;20474;-90
2023/05/22 05:36:25;;;;;;;37.47;20.47;;;15.70;99.90;;;;;;5108501;28;20925;-89
2023/05/22 05:38:51;;;;;;;37.17;18.98;;;15.70;99.90;;;;;;5109015;28;20854;-90
2023/05/22 05:41:17;;;;;;;27.97;16.70;;;15.70;99.90;;;;;;5109022;28;20386;-90
2023/05/22 05:43:43;;;;;;;29.73;18.77;;;15.70;99.90;;;;;;5108369;28;20414;-89
2023/05/22 05:46:09;;;;;;;30.17;18.13;;;15.70;99.90;;;;;;5108946;28;20387;-90
2023/05/22 05:48:35;;;;;;;31.13;17.47;;;15.90;99.90;;;;;;5108096;28;20405;-90
2023/05/22 05:51:01;;;;;;;28.40;18.70;;;15.90;99.90;;;;;;5125934;28;20395;-90
2023/05/22 05:53:27;;;;;;;29.97;17.37;;;15.90;99.90;;;;;;5125372;28;20425;-89
2023/05/22 05:55:53;;;;;;;32.55;16.98;;;15.50;99.90;;;;;;5108944;28;20403;-88
2023/05/22 05:58:19;;;;;;;26.52;14.95;;;15.50;99.90;;;;;;5108188;28;20896;-89
2023/05/22 06:00:45;;;;;;;27.20;16.80;;;15.40;99.90;;;;;;5108206;28;20563;-90
2023/05/22 06:03:10;;;;;;;32.42;18.73;;;15.40;99.90;;;;;;5108298;28;20787;-88
2023/05/22 06:05:36;;;;;;;30.23;18.60;;;15.50;99.90;;;;;;5110620;27;20761;-90
2023/05/22 06:08:03;;;;;;;33.35;18.17;;;15.40;99.90;;;;;;5112627;27;20447;-88
2023/05/22 06:10:28;;;;;;;33.28;18.23;;;15.40;99.90;;;;;;5111209;27;20480;-87
2023/05/22 06:12:54;;;;;;;29.40;18.33;;;15.40;99.90;;;;;;5112002;27;20442;-89
2023/05/22 06:15:20;;;;;;;28.55;17.90;;;15.40;99.90;;;;;;5111523;27;20463;-91
2023/05/22 06:17:45;;;;;;;32.67;19.70;;;15.40;99.90;;;;;;5112521;27;21203;-89
2023/05/22 06:20:13;;;;;;;28.58;19.77;;;15.50;99.90;;;;;;5111570;27;20478;-89
2023/05/22 06:22:38;;;;;;;25.25;16.08;;;15.50;99.90;;;;;;5111398;27;20422;-90
2023/05/22 06:25:04;;;;;;;28.17;16.48;;;15.60;99.90;;;;;;5112168;27;20463;-89
2023/05/22 06:27:30;;;;;;;30.90;17.92;;;15.60;99.90;;;;;;5111237;27;20391;-90
2023/05/22 06:29:56;;;;;;;27.33;16.13;;;15.70;99.90;;;;;;5112129;27;20451;-89
2023/05/22 06:32:22;;;;;;;25.97;14.40;;;16.00;99.90;;;;;;5111199;27;20391;-90
2023/05/22 06:34:48;;;;;;;23.60;13.70;;;16.20;99.90;;;;;;5112131;27;20406;-90
2023/05/22 06:37:14;;;;;;;27.02;14.35;;;16.10;99.90;;;;;;5111915;27;20406;-90
2023/05/22 06:39:40;;;;;;;23.98;13.60;;;16.10;99.90;;;;;;5111686;27;20395;-89
2023/05/22 06:42:06;;;;;;;26.27;14.45;;;16.50;99.90;;;;;;5112069;27;20505;-91
2023/05/22 06:44:32;;;;;;;28.00;16.23;;;16.20;99.90;;;;;;5111309;27;20394;-90
2023/05/22 06:46:57;;;;;;;24.98;14.70;;;16.20;99.90;;;;;;5112269;27;20398;-89
2023/05/22 06:49:23;;;;;;;25.23;14.60;;;16.30;99.90;;;;;;5110925;27;20406;-90
2023/05/22 06:51:49;;;;;;;21.53;13.53;;;16.30;99.90;;;;;;5111886;27;20403;-91
2023/05/22 06:54:15;;;;;;;22.60;13.27;;;16.60;99.90;;;;;;5111704;27;20549;-90
2023/05/22 06:56:41;;;;;;;23.23;13.45;;;16.40;99.90;;;;;;5112288;27;20482;-89
2023/05/22 06:59:07;;;;;;;24.80;13.97;;;16.60;99.90;;;;;;5111599;27;20753;-91
2023/05/22 07:01:32;;;;;;;21.60;12.82;;;16.50;99.90;;;;;;5111192;27;20774;-92
2023/05/22 07:04:00;;;;;;;19.58;13.43;;;16.50;99.90;;;;;;5111652;27;20433;-88
2023/05/22 07:06:26;;;;;;;19.67;12.07;;;16.70;99.90;;;;;;5111375;27;20884;-91
2023/05/22 07:08:52;;;;;;;19.20;13.15;;;16.70;99.90;;;;;;5112007;27;20394;-91
2023/05/22 07:11:18;;;;;;;20.08;12.77;;;16.80;99.90;;;;;;5111044;27;20391;-91
2023/05/22 07:13:44;;;;;;;22.10;13.88;;;17.00;99.90;;;;;;5111400;27;20394;-93
2023/05/22 07:16:09;;;;;;;19.97;12.20;;;16.80;99.90;;;;;;5109940;27;21194;-91
2023/05/22 07:18:35;;;;;;;20.02;12.07;;;17.00;99.90;;;;;;5110905;27;20434;-91
2023/05/22 07:21:01;;;;;;;18.00;11.80;;;17.00;99.90;;;;;;5111457;27;20395;-90
2023/05/22 07:23:27;;;;;;;18.07;11.60;;;17.60;99.90;;;;;;5111422;27;20462;-90
2023/05/22 07:25:52;;;;;;;16.40;9.90;;;17.40;99.90;;;;;;5115147;27;20407;-90
2023/05/22 07:28:18;;;;;;;16.50;8.82;;;17.70;99.90;;;;;;5113820;27;20466;-89
2023/05/22 07:30:44;;;;;;;14.13;8.00;;;17.30;99.90;;;;;;5114877;27;20393;-89
2023/05/22 07:33:10;;;;;;;11.02;7.90;;;17.30;99.90;;;;;;5114146;27;20902;-91
2023/05/22 07:35:36;;;;;;;13.07;8.07;;;17.60;99.90;;;;;;5114792;27;20396;-90
2023/05/22 07:38:01;;;;;;;13.87;7.80;;;17.50;99.90;;;;;;5114936;27;20393;-91
2023/05/22 07:40:27;;;;;;;13.75;7.63;;;17.50;99.90;;;;;;5113941;27;20393;-89
2023/05/22 07:42:53;;;;;;;11.27;6.97;;;17.70;99.90;;;;;;5114686;27;20835;-90
2023/05/22 07:45:18;;;;;;;12.70;7.13;;;18.00;99.90;;;;;;5113721;27;20669;-92
2023/05/22 07:47:44;;;;;;;12.47;6.37;;;18.10;99.90;;;;;;5114606;27;20752;-91
2023/05/22 07:50:09;;;;;;;12.55;6.45;;;18.10;99.90;;;;;;5113486;27;20393;-91
2023/05/22 07:52:35;;;;;;;10.83;5.87;;;18.20;99.90;;;;;;5114440;27;20887;-91
2023/05/22 07:55:01;;;;;;;12.18;6.30;;;18.20;99.90;;;;;;5114365;27;20412;-91
2023/05/22 07:57:28;;;;;;;11.10;6.47;;;18.00;99.90;;;;;;5113624;27;20416;-92
2023/05/22 07:59:54;;;;;;;11.37;5.97;;;18.00;99.90;;;;;;5114086;27;20389;-91
2023/05/22 08:02:21;;;;;;;9.73;5.97;;;18.20;99.90;;;;;;5113510;27;20427;-91
2023/05/22 08:04:47;;;;;;;10.88;5.97;;;17.90;99.90;;;;;;5114122;27;20400;-91
2023/05/22 08:07:13;;;;;;;10.13;5.93;;;18.10;99.90;;;;;;5113615;27;20409;-91
2023/05/22 08:09:38;;;;;;;9.27;5.50;;;18.10;99.90;;;;;;5114155;27;20389;-92
2023/05/22 08:12:05;;;;;;;10.57;5.53;;;17.80;99.90;;;;;;5113356;27;20950;-92
2023/05/22 08:14:31;;;;;;;7.45;5.50;;;17.80;99.90;;;;;;5113793;27;20443;-91
2023/05/22 08:16:57;;;;;;;8.27;5.00;;;17.80;99.90;;;;;;5113017;27;20401;-90
2023/05/22 08:19:24;;;;;;;7.72;5.28;;;17.90;99.90;;;;;;5111796;27;20401;-91
2023/05/22 08:21:51;;;;;;;7.55;5.25;;;17.80;99.90;;;;;;5112980;27;20415;-89
2023/05/22 08:24:17;;;;;;;6.65;4.95;;;17.90;99.90;;;;;;5111503;27;20417;-91
2023/05/22 08:26:43;;;;;;;5.90;5.30;;;18.10;99.90;;;;;;5113186;27;20393;-90
2023/05/22 08:29:10;;;;;;;6.82;5.25;;;17.90;99.90;;;;;;5111734;27;20389;-91
2023/05/22 08:31:36;;;;;;;6.75;4.90;;;18.00;99.90;;;;;;5112447;27;20389;-91
2023/05/22 08:34:02;;;;;;;6.50;5.67;;;18.00;99.90;;;;;;5112664;27;20412;-91
2023/05/22 08:36:32;;;;;;;8.13;5.78;;;17.90;99.90;;;;;;5113252;27;20755;-91
2023/05/22 08:39:00;;;;;;;6.53;5.82;;;18.20;99.90;;;;;;5113320;27;20399;-93
2023/05/22 08:41:26;;;;;;;8.35;6.07;;;18.10;99.90;;;;;;5112826;27;20487;-91
2023/05/22 08:43:52;;;;;;;8.55;6.60;;;18.20;99.90;;;;;;5113310;27;20436;-91
2023/05/22 08:46:18;;;;;;;8.45;6.47;;;18.50;99.90;;;;;;5112213;27;20404;-91
2023/05/22 08:48:46;;;;;;;8.57;6.47;;;18.30;99.90;;;;;;5113741;27;20895;-91
2023/05/22 08:51:15;;;;;;;9.10;7.18;;;18.40;99.90;;;;;;5112735;27;20483;-90
2023/05/22 08:53:42;;;;;;;11.70;7.50;;;18.50;99.90;;;;;;5130308;27;20403;-90
2023/05/22 08:56:09;;;;;;;9.15;6.82;;;18.60;99.90;;;;;;5113031;27;20484;-90
2023/05/22 08:58:35;;;;;;;8.80;7.10;;;18.90;99.90;;;;;;5112832;27;20397;-89
2023/05/22 09:01:03;;;;;;;9.20;7.25;;;18.90;99.90;;;;;;5130714;27;20393;-91
2023/05/22 09:03:33;;;;;;;11.20;7.35;;;19.00;99.90;;;;;;5112340;27;20420;-89
2023/05/22 09:06:00;;;;;;;10.88;7.40;;;19.30;99.90;;;;;;5113387;27;20476;-91
2023/05/22 09:08:27;;;;;;;8.48;7.30;;;19.30;99.90;;;;;;5112525;27;20755;-92
2023/05/22 09:10:56;;;;;;;8.32;7.15;;;19.50;99.90;;;;;;5111788;27;20404;-90
2023/05/22 09:13:25;;;;;;;8.85;7.35;;;19.60;99.90;;;;;;5111651;27;20953;-91
2023/05/22 09:15:50;;;;;;;8.63;7.22;;;19.60;99.90;;;;;;5110830;27;20397;-90
2023/05/22 09:18:16;;;;;;;9.43;7.63;;;19.70;99.90;;;;;;5112490;27;20553;-92
2023/05/22 09:20:42;;;;;;;8.80;7.72;;;19.80;99.90;;;;;;5110897;27;20572;-91
2023/05/22 09:23:13;;;;;;;10.10;7.93;;;19.90;99.90;;;;;;5113268;27;20679;-91
2023/05/22 09:25:41;;;;;;;10.77;8.43;;;20.20;99.90;;;;;;5112126;27;20513;-92
2023/05/22 09:28:06;;;;;;;10.50;9.30;;;20.00;99.90;;;;;;5112546;27;20956;-92
2023/05/22 09:30:35;;;;;;;10.80;8.85;;;20.50;99.90;;;;;;5112811;27;20404;-90
2023/05/22 09:33:07;;;;;;;9.80;8.80;;;20.60;99.90;;;;;;5112387;27;20484;-91
2023/05/22 09:35:38;;;;;;;11.05;9.02;;;21.10;99.90;;;;;;5112821;27;20408;-91
2023/05/22 09:38:04;;;;;;;11.45;9.35;;;21.60;99.90;;;;;;5112272;27;20397;-92
2023/05/22 09:40:33;;;;;;;10.00;9.00;;;21.70;99.90;;;;;;5115710;27;20790;-92
2023/05/22 09:43:00;;;;;;;10.45;9.38;;;21.90;99.90;;;;;;5116232;27;20457;-91
2023/05/22 09:45:26;;;;;;;11.40;10.25;;;22.10;99.90;;;;;;5116799;27;20405;-91
2023/05/22 09:47:52;;;;;;;11.45;9.50;;;22.00;99.90;;;;;;5116378;27;20518;-93
2023/05/22 09:50:18;;;;;;;11.88;10.00;;;22.00;99.90;;;;;;5115965;27;20429;-91
2023/05/22 09:52:45;;;;;;;11.93;10.53;;;21.90;99.90;;;;;;5116638;27;20405;-91
2023/05/22 09:55:12;;;;;;;11.52;10.35;;;22.00;99.90;;;;;;5115547;27;20401;-91
2023/05/22 09:57:43;;;;;;;11.13;9.90;;;21.70;99.90;;;;;;5116242;27;20416;-93
2023/05/22 10:00:17;;;;;;;12.10;10.93;;;21.80;99.90;;;;;;5115654;27;20397;-91
2023/05/22 10:02:47;;;;;;;11.47;10.07;;;21.80;99.90;;;;;;5116057;27;20431;-91
2023/05/22 10:05:20;;;;;;;11.73;10.52;;;21.80;99.90;;;;;;5116339;27;21004;-92
2023/05/22 10:07:56;;;;;;;11.90;10.70;;;22.00;99.90;;;;;;5115676;27;20898;-92
2023/05/22 10:10:23;;;;;;;13.25;11.30;;;21.70;99.90;;;;;;5116439;27;20405;-90
2023/05/22 10:13:09;;;;;;;13.07;11.75;;;21.80;99.90;;;;;;5115445;27;20425;-92
2023/05/22 10:15:35;;;;;;;13.02;11.73;;;21.80;99.90;;;;;;5115615;27;20902;-89
2023/05/22 10:18:01;;;;;;;13.20;11.90;;;21.70;99.90;;;;;;5115952;27;20409;-89
2023/05/22 10:20:28;;;;;;;12.55;11.38;;;21.70;99.90;;;;;;5115580;27;20990;-92
2023/05/22 10:22:55;;;;;;;12.75;11.55;;;21.80;99.90;;;;;;5116100;27;20488;-91
2023/05/22 10:25:21;;;;;;;12.77;11.57;;;21.90;99.90;;;;;;5111742;27;20399;-90
2023/05/22 10:27:48;;;;;;;13.50;12.20;;;22.10;99.90;;;;;;5112751;27;20896;-91
2023/05/22 10:30:23;;;;;;;12.98;11.77;;;22.40;99.90;;;;;;5111638;27;20395;-91
2023/05/22 10:33:17;;;;;;;12.50;11.30;;;22.30;99.90;;;;;;5112420;27;20437;-92
2023/05/22 10:35:57;;;;;;;13.43;12.13;;;22.40;99.90;;;;;;5112599;27;20406;-92
2023/05/22 10:38:32;;;;;;;13.20;11.90;;;22.60;99.90;;;;;;5111452;27;20387;-91
2023/05/22 10:40:58;;;;;;;13.85;12.38;;;22.70;99.90;;;;;;5112690;27;20414;-91
2023/05/22 10:43:24;;;;;;;12.82;11.63;;;22.80;99.90;;;;;;5111617;27;20422;-91
2023/05/22 10:46:04;;;;;;;13.57;12.07;;;22.90;99.90;;;;;;5111930;27;20447;-90
2023/05/22 10:48:39;;;;;;;13.43;12.07;;;22.90;99.90;;;;;;5111990;27;20455;-92
2023/05/22 10:51:06;;;;;;;13.30;12.00;;;22.90;99.90;;;;;;5110426;27;20398;-91
2023/05/22 10:53:33;;;;;;;13.13;11.93;;;22.90;99.90;;;;;;5112402;27;21082;-91
2023/05/22 10:56:11;;;;;;;13.40;12.18;;;22.90;99.90;;;;;;5111007;27;20390;-92
2023/05/22 10:58:38;;;;;;;13.88;12.57;;;22.90;99.90;;;;;;5112243;27;20977;-92
2023/05/22 11:01:14;;;;;;;15.00;13.00;;;22.90;99.90;;;;;;5111743;27;20761;-91
2023/05/22 11:03:59;;;;;;;14.13;12.82;;;23.30;99.90;;;;;;5111229;27;20440;-91
2023/05/22 11:06:44;;;;;;;14.00;12.65;;;23.30;99.90;;;;;;5112182;27;20411;-92
2023/05/22 11:09:28;;;;;;;15.20;13.38;;;23.30;99.90;;;;;;5110857;27;20398;-92
2023/05/22 11:12:12;;;;;;;14.95;13.45;;;23.30;99.90;;;;;;5111539;27;20402;-90
2023/05/22 11:14:38;;;;;;;14.80;13.38;;;23.40;99.90;;;;;;5111580;27;20402;-93
2023/05/22 11:17:05;;;;;;;15.77;13.85;;;23.60;99.90;;;;;;5110811;27;20391;-90
2023/05/22 11:19:31;;;;;;;15.27;13.77;;;23.90;99.90;;;;;;5111506;27;20456;-90
2023/05/22 11:22:00;;;;;;;15.40;13.85;;;24.30;99.90;;;;;;5110979;27;20411;-92
2023/05/22 11:24:32;;;;;;;15.20;13.73;;;24.70;99.90;;;;;;5111429;27;20447;-93
2023/05/22 11:27:17;;;;;;;14.70;13.20;;;25.10;99.90;;;;;;5110692;27;20470;-91
2023/05/22 11:29:43;;;;;;;14.65;13.18;;;25.30;99.20;;;;;;5110969;27;20449;-92
2023/05/22 11:32:14;;;;;;;14.48;13.13;;;25.70;99.90;;;;;;5111242;27;20457;-93
2023/05/22 11:34:39;;;;;;;14.45;13.15;;;25.70;99.40;;;;;;5110266;27;20394;-93
2023/05/22 11:37:05;;;;;;;14.10;12.85;;;26.00;97.20;;;;;;5111744;27;20403;-92
2023/05/22 11:39:31;;;;;;;13.43;12.13;;;26.30;94.30;;;;;;5110123;27;20441;-92
2023/05/22 11:41:57;;;;;;;14.13;12.73;;;26.50;96.40;;;;;;5111300;27;20391;-93
2023/05/22 11:44:25;;;;;;;13.67;12.40;;;26.50;97.10;;;;;;5110984;27;20418;-92
2023/05/22 11:46:51;;;;;;;14.13;12.75;;;26.60;88.90;;;;;;5110476;27;20414;-92
2023/05/22 11:49:17;;;;;;;13.13;11.73;;;26.80;87.80;;;;;;5111031;27;20406;-92
2023/05/22 11:51:43;;;;;;;13.57;12.00;;;26.70;92.90;;;;;;5109920;27;20487;-92
2023/05/22 11:54:09;;;;;;;13.52;12.13;;;26.20;90.60;;;;;;5111141;27;20912;-91
2023/05/22 11:56:35;;;;;;;15.35;11.68;;;25.80;97.20;;;;;;5110062;27;20904;-91
2023/05/22 11:59:00;;;;;;;12.82;11.52;;;25.60;98.70;;;;;;5111084;27;20447;-91
2023/05/22 12:01:26;;;;;;;15.50;12.40;;;25.50;98.80;;;;;;5109794;27;20424;-92
2023/05/22 12:03:53;;;;;;;14.93;12.52;;;25.00;98.50;;;;;;5110131;27;20777;-92
2023/05/22 12:06:18;;;;;;;15.57;12.95;;;24.50;99.10;;;;;;5110523;27;20387;-91
2023/05/22 12:08:44;;;;;;;14.60;12.80;;;24.50;99.90;;;;;;5110064;27;20440;-92
2023/05/22 12:11:13;;;;;;;14.52;12.90;;;24.70;99.60;;;;;;5110828;27;20402;-91
2023/05/22 12:13:38;;;;;;;17.00;13.43;;;24.60;99.90;;;;;;5110111;27;20776;-91
2023/05/22 12:16:18;;;;;;;15.52;13.65;;;25.00;98.60;;;;;;5110424;27;20925;-92
2023/05/22 12:18:44;;;;;;;15.38;13.32;;;25.00;99.60;;;;;;5109995;27;20903;-92
2023/05/22 12:21:10;;;;;;;14.80;13.23;;;24.90;99.10;;;;;;5110306;27;20422;-91
2023/05/22 12:23:45;;;;;;;17.08;13.45;;;25.30;98.60;;;;;;5112019;27;20425;-93
2023/05/22 12:26:11;;;;;;;15.18;13.55;;;25.40;98.50;;;;;;5112917;27;20389;-92
2023/05/22 12:28:37;;;;;;;14.55;13.13;;;25.60;93.30;;;;;;5114004;27;20728;-91